KBDN

Bend Municipal Airport

Bend, Oregon, USA
METAR KBDN 171215Z AUTO 21006KT 10SM FEW080 FEW090 04/01 A2998 RMK AO2
Observed Flight Rules
Dec-17 @ 12:15 UTC (25 minutes ago) Visual Flight Rules
Wind Visibility Clouds
210° at 6 knots 10 miles
  • Few at 8,000' AGL
  • Few at 9,000' AGL
Temperatures Readings
Current 4°C / 39°F
Dewpoint 1°C / 34°F
Humidity 81%
Altimeter 29.98" Hg
Pressure 1015 hPa
Elevation 1055
METAR KBDN 171215Z AUTO 21006KT 10SM FEW080 FEW090 04/01 A2998 RMK AO2
Observed Flight Rules
Dec-17 @ 12:15 UTC
(25 minutes ago)
VFR
Wind Visibility
210° at 6 knots 10 miles
Clouds
  • Few at 8,000' AGL
  • Few at 9,000' AGL
Temperature Dewpoint
4°C / 39°F 1°C / 34°F
Humidity Altimeter Pressure
81% 29.98" Hg 1015 hPa